createdAt,value
2018-05-31T04:31:01.124Z,1008.53
2018-05-31T04:32:01.008Z,1008.52
2018-05-31T04:33:53.713Z,1008.52
2018-05-31T04:34:53.594Z,1008.52
2018-05-31T04:36:46.282Z,1008.54
2018-05-31T04:37:46.182Z,1008.62
2018-05-31T04:39:38.898Z,1008.57
2018-05-31T04:40:38.763Z,1008.62
2018-05-31T04:42:31.497Z,1008.62
2018-05-31T04:43:31.349Z,1008.65
2018-05-31T04:45:24.057Z,1008.62
2018-05-31T04:46:23.939Z,1008.69
2018-05-31T04:48:16.624Z,1008.63
2018-05-31T04:49:16.525Z,1008.66
2018-05-31T04:51:09.231Z,1008.64
2018-05-31T04:52:09.109Z,1008.63
2018-05-31T04:54:01.794Z,1008.64
2018-05-31T04:55:01.703Z,1008.64
2018-05-31T04:56:54.400Z,1008.61
2018-05-31T04:57:54.335Z,1008.61
2018-05-31T04:59:46.981Z,1008.58
2018-05-31T05:00:46.876Z,1008.64
2018-05-31T05:02:39.601Z,1008.63
2018-05-31T05:03:39.464Z,1008.69
2018-05-31T05:05:32.158Z,1008.71
2018-05-31T05:06:32.053Z,1008.66
2018-05-31T05:08:24.760Z,1008.73
2018-05-31T05:09:24.646Z,1008.75
2018-05-31T05:11:17.331Z,1008.73
2018-05-31T05:12:17.239Z,1008.70
2018-05-31T05:14:09.939Z,1008.72
2018-05-31T05:15:09.825Z,1008.74
2018-05-31T05:17:02.509Z,1008.82
2018-05-31T05:18:02.423Z,1008.86
2018-05-31T05:19:55.118Z,1008.83
2018-05-31T05:20:55.022Z,1008.87
2018-05-31T05:22:47.693Z,1008.88
2018-05-31T05:23:47.592Z,1008.84
2018-05-31T05:25:40.301Z,1008.88
2018-05-31T05:26:40.179Z,1008.81
2018-05-31T05:28:32.875Z,1008.85
2018-05-31T05:29:32.775Z,1008.83
2018-05-31T05:31:25.481Z,1008.85
2018-05-31T05:32:25.412Z,1008.84
2018-05-31T05:34:18.061Z,1008.83
2018-05-31T05:35:17.960Z,1008.80
2018-05-31T05:37:10.671Z,1008.78
2018-05-31T05:38:10.552Z,1008.82
2018-05-31T05:40:03.274Z,1008.83
2018-05-31T05:41:03.149Z,1008.88
2018-05-31T05:42:55.837Z,1008.83
2018-05-31T05:43:55.746Z,1008.82
2018-05-31T05:45:49.451Z,1008.85
2018-05-31T05:46:49.358Z,1008.82
2018-05-31T05:48:42.025Z,1008.80
2018-05-31T05:49:41.929Z,1008.76
2018-05-31T05:51:34.631Z,1008.77
2018-05-31T05:52:34.529Z,1008.80
2018-05-31T05:54:27.219Z,1008.86
2018-05-31T05:55:27.124Z,1008.86
2018-05-31T05:57:19.837Z,1008.83
2018-05-31T05:58:19.723Z,1008.86
2018-05-31T06:00:12.419Z,1008.85
2018-05-31T06:01:12.320Z,1008.84
2018-05-31T06:03:05.029Z,1008.88
2018-05-31T06:04:04.910Z,1008.92
2018-05-31T06:05:57.605Z,1008.90
2018-05-31T06:06:57.509Z,1008.91
2018-05-31T06:08:50.221Z,1008.88
2018-05-31T06:09:50.119Z,1008.84
2018-05-31T06:11:42.801Z,1008.90
2018-05-31T06:12:42.700Z,1008.92
2018-05-31T06:14:35.421Z,1009.21
2018-05-31T06:15:35.351Z,1009.67
2018-05-31T06:17:28.001Z,1010.05
2018-05-31T06:18:27.896Z,1010.13
2018-05-31T06:20:20.619Z,1009.95
2018-05-31T06:21:20.501Z,1009.90
2018-05-31T06:23:13.213Z,1009.68
2018-05-31T06:24:13.118Z,1009.78
2018-05-31T06:26:05.845Z,1009.84
2018-05-31T06:27:05.727Z,1009.93
2018-05-31T06:28:58.445Z,1009.89
2018-05-31T06:29:58.353Z,1009.98
2018-05-31T06:31:51.084Z,1010.00
2018-05-31T06:32:50.983Z,1009.34
2018-05-31T06:34:43.685Z,1009.85
2018-05-31T06:35:43.592Z,1009.68
2018-05-31T06:37:36.327Z,1009.91
2018-05-31T06:38:36.221Z,1010.02
2018-05-31T06:40:28.934Z,1009.73
2018-05-31T06:41:28.848Z,1009.96
2018-05-31T06:43:21.581Z,1009.76
2018-05-31T06:44:21.470Z,1009.73
2018-05-31T06:46:14.182Z,1009.63
2018-05-31T06:47:14.088Z,1009.58
2018-05-31T06:49:06.877Z,1009.83
2018-05-31T06:50:06.776Z,1009.95
2018-05-31T06:51:59.550Z,1010.01
2018-05-31T06:52:59.403Z,1010.12
2018-05-31T06:54:52.132Z,1010.16
2018-05-31T06:55:52.033Z,1010.21
2018-05-31T06:57:44.753Z,1010.31
2018-05-31T06:58:44.667Z,1010.36
2018-05-31T07:00:37.400Z,1010.28
2018-05-31T07:01:37.297Z,1010.36
2018-05-31T07:03:30.020Z,1010.40
2018-05-31T07:04:29.949Z,1010.30
2018-05-31T07:06:23.240Z,1010.06
2018-05-31T07:07:23.123Z,1010.06
2018-05-31T07:09:15.920Z,1010.01
2018-05-31T07:10:15.739Z,1010.01
2018-05-31T07:12:08.474Z,1009.87
2018-05-31T07:13:08.378Z,1009.74
2018-05-31T07:15:01.101Z,1009.64
2018-05-31T07:16:01.021Z,1009.69
2018-05-31T07:17:53.753Z,1009.86
2018-05-31T07:18:53.652Z,1009.80
2018-05-31T07:20:46.373Z,1009.71
2018-05-31T07:21:46.313Z,1009.74
2018-05-31T07:23:39.036Z,1009.77
2018-05-31T07:24:38.948Z,1009.77
2018-05-31T07:26:31.660Z,1009.74
2018-05-31T07:27:31.574Z,1009.75
2018-05-31T07:29:24.316Z,1009.75
2018-05-31T07:30:24.219Z,1009.75
2018-05-31T07:32:17.090Z,1009.74
2018-05-31T07:33:16.873Z,1009.70
2018-05-31T07:35:09.626Z,1009.67
2018-05-31T07:36:09.519Z,1009.70
2018-05-31T07:38:02.231Z,1009.66
2018-05-31T07:39:02.149Z,1009.64
2018-05-31T07:40:54.896Z,1009.68
2018-05-31T07:41:54.792Z,1009.71
2018-05-31T07:43:47.509Z,1009.69
2018-05-31T07:44:47.482Z,1009.69
2018-05-31T07:46:41.203Z,1009.69
2018-05-31T07:47:41.076Z,1009.73
2018-05-31T07:49:33.786Z,1009.78
2018-05-31T07:50:33.701Z,1009.81
2018-05-31T07:52:26.451Z,1009.89
2018-05-31T07:53:26.346Z,1009.86
2018-05-31T07:55:19.075Z,1009.88
2018-05-31T07:56:18.987Z,1009.87
2018-05-31T07:58:12.280Z,1009.84
2018-05-31T07:59:12.134Z,1009.82
2018-05-31T08:01:04.856Z,1009.87
2018-05-31T08:02:04.779Z,1009.94
2018-05-31T08:03:57.514Z,1009.70
2018-05-31T08:04:57.505Z,1009.55
2018-05-31T08:06:50.130Z,1009.39
2018-05-31T08:07:50.046Z,1009.35
2018-05-31T08:09:42.791Z,1009.60
2018-05-31T08:10:42.676Z,1009.75
2018-05-31T08:12:35.392Z,1009.87
2018-05-31T08:13:35.308Z,1010.02
2018-05-31T08:15:28.047Z,1009.98
2018-05-31T08:16:27.943Z,1009.97
2018-05-31T08:18:20.663Z,1010.00
2018-05-31T08:19:20.575Z,1010.01
2018-05-31T08:21:13.348Z,1010.05
2018-05-31T08:22:13.212Z,1010.09
2018-05-31T08:24:06.091Z,1010.08
2018-05-31T08:25:06.003Z,1010.13
2018-05-31T08:26:58.740Z,1010.15
2018-05-31T08:27:58.636Z,1010.14
2018-05-31T08:29:51.367Z,1010.05
2018-05-31T08:30:51.313Z,1010.04
2018-05-31T08:32:44.021Z,1010.07
2018-05-31T08:33:43.923Z,1010.02
2018-05-31T08:35:36.676Z,1010.00
2018-05-31T08:36:36.573Z,1009.93
2018-05-31T08:38:29.314Z,1009.90
2018-05-31T08:39:29.214Z,1009.84
2018-05-31T08:41:21.940Z,1009.82
2018-05-31T08:42:21.859Z,1009.76
2018-05-31T08:44:14.602Z,1009.45
2018-05-31T08:45:14.489Z,1009.21
2018-05-31T08:47:07.212Z,1009.06
2018-05-31T08:48:07.140Z,1009.01
2018-05-31T08:49:59.944Z,1009.01
2018-05-31T08:50:59.789Z,1008.93
2018-05-31T08:52:52.481Z,1008.96
2018-05-31T08:53:52.407Z,1008.98
2018-05-31T08:55:45.125Z,1008.97
2018-05-31T08:56:45.023Z,1008.98
2018-05-31T08:58:37.740Z,1009.00
2018-05-31T08:59:37.647Z,1009.02
2018-05-31T09:01:30.402Z,1008.95
2018-05-31T09:02:30.272Z,1008.96
2018-05-31T09:04:22.983Z,1008.95
2018-05-31T09:05:22.892Z,1008.95
2018-05-31T09:07:15.616Z,1008.96
2018-05-31T09:08:15.518Z,1009.00
2018-05-31T09:10:08.224Z,1009.00
2018-05-31T09:11:08.132Z,1008.98
2018-05-31T09:13:00.887Z,1008.93
2018-05-31T09:14:00.752Z,1008.94
2018-05-31T09:15:54.463Z,1008.97
2018-05-31T09:16:54.364Z,1008.97
2018-05-31T09:18:47.088Z,1008.95
2018-05-31T09:19:46.986Z,1008.94
2018-05-31T09:21:39.794Z,1008.96
2018-05-31T09:22:39.711Z,1008.97
2018-05-31T09:24:32.657Z,1008.93
2018-05-31T09:25:32.321Z,1008.91
2018-05-31T09:27:25.017Z,1008.89
2018-05-31T09:28:24.930Z,1008.92
2018-05-31T09:30:17.681Z,1008.92
2018-05-31T09:31:17.551Z,1008.90
2018-05-31T09:33:10.356Z,1008.91
2018-05-31T09:34:10.268Z,1008.92
2018-05-31T09:36:03.030Z,1008.89
2018-05-31T09:37:02.890Z,1008.85
2018-05-31T09:38:55.589Z,1008.84
2018-05-31T09:39:55.495Z,1008.88
2018-05-31T09:41:48.225Z,1008.87
2018-05-31T09:42:48.115Z,1008.88
2018-05-31T09:44:41.308Z,1008.95
2018-05-31T09:45:41.222Z,1008.93
2018-05-31T09:47:33.939Z,1008.89
2018-05-31T09:48:33.827Z,1008.93
2018-05-31T09:50:26.539Z,1008.92
2018-05-31T09:51:26.438Z,1008.91
2018-05-31T09:53:19.172Z,1008.92
2018-05-31T09:54:19.060Z,1008.92
2018-05-31T09:56:11.769Z,1008.95
2018-05-31T09:57:11.672Z,1008.93
2018-05-31T09:59:04.403Z,1008.95
2018-05-31T10:00:04.297Z,1008.92
2018-05-31T10:01:56.997Z,1008.86
2018-05-31T10:02:56.905Z,1008.85
2018-05-31T10:04:49.629Z,1008.87
2018-05-31T10:05:49.520Z,1008.90
2018-05-31T10:07:42.221Z,1008.86
2018-05-31T10:08:42.135Z,1008.85
2018-05-31T10:10:34.865Z,1008.88
2018-05-31T10:11:34.739Z,1008.85
2018-05-31T10:13:27.443Z,1008.83
2018-05-31T10:14:27.348Z,1008.86
2018-05-31T10:16:20.077Z,1008.84
2018-05-31T10:17:19.957Z,1008.80
2018-05-31T10:19:12.670Z,1008.81
2018-05-31T10:20:12.579Z,1008.81
2018-05-31T10:22:05.303Z,1008.82
2018-05-31T10:23:05.189Z,1008.79
2018-05-31T10:24:57.895Z,1008.75
2018-05-31T10:25:57.797Z,1008.78
2018-05-31T10:27:50.542Z,1008.76
2018-05-31T10:28:50.415Z,1008.78
2018-05-31T10:30:43.120Z,1008.75
2018-05-31T10:31:43.029Z,1008.72
2018-05-31T10:33:35.761Z,1008.67
2018-05-31T10:34:35.643Z,1008.69
2018-05-31T10:36:28.355Z,1008.69
2018-05-31T10:37:28.251Z,1008.68
2018-05-31T10:39:20.976Z,1008.67
2018-05-31T10:40:20.868Z,1008.70
2018-05-31T10:42:13.574Z,1008.69
2018-05-31T10:43:13.476Z,1008.67
2018-05-31T10:45:06.204Z,1008.72
2018-05-31T10:46:06.096Z,1008.62
2018-05-31T10:47:58.837Z,1008.61
2018-05-31T10:48:58.708Z,1008.62
2018-05-31T10:50:51.448Z,1008.67
2018-05-31T10:51:51.321Z,1008.66
2018-05-31T10:53:44.352Z,1008.64
2018-05-31T10:54:43.944Z,1008.62
2018-05-31T10:56:36.641Z,1008.59
2018-05-31T10:57:36.553Z,1008.59
2018-05-31T10:59:29.286Z,1008.57
2018-05-31T11:00:29.165Z,1008.55
2018-05-31T11:02:21.870Z,1008.54
2018-05-31T11:03:21.779Z,1008.56
2018-05-31T11:05:14.495Z,1008.50
2018-05-31T11:06:14.390Z,1008.49
2018-05-31T11:08:07.096Z,1008.48
2018-05-31T11:09:07.005Z,1008.39
2018-05-31T11:10:59.721Z,1008.45
2018-05-31T11:11:59.619Z,1008.41
2018-05-31T11:13:52.813Z,1008.44
2018-05-31T11:14:52.770Z,1008.44
2018-05-31T11:16:45.437Z,1008.44
2018-05-31T11:17:45.330Z,1008.44
2018-05-31T11:19:38.032Z,1008.48
2018-05-31T11:20:37.942Z,1008.49
2018-05-31T11:22:30.664Z,1008.47
2018-05-31T11:23:30.556Z,1008.45
2018-05-31T11:25:23.252Z,1008.40
2018-05-31T11:26:23.164Z,1008.43
2018-05-31T11:28:15.882Z,1008.37
2018-05-31T11:29:15.788Z,1008.38
2018-05-31T11:31:08.485Z,1008.40
2018-05-31T11:32:08.396Z,1008.40
2018-05-31T11:34:01.126Z,1008.36
2018-05-31T11:35:01.013Z,1008.36
2018-05-31T11:36:53.719Z,1008.33
2018-05-31T11:37:53.623Z,1008.34
2018-05-31T11:39:46.347Z,1008.30
2018-05-31T11:40:46.242Z,1008.27
2018-05-31T11:42:38.941Z,1008.26
2018-05-31T11:43:38.852Z,1008.27
2018-05-31T11:45:31.572Z,1008.27
2018-05-31T11:46:31.473Z,1008.25
2018-05-31T11:48:24.182Z,1008.26
2018-05-31T11:49:24.085Z,1008.22
2018-05-31T11:51:16.820Z,1008.19
2018-05-31T11:52:16.710Z,1008.18
2018-05-31T11:54:09.405Z,1008.19
2018-05-31T11:55:09.311Z,1008.14
2018-05-31T11:57:02.038Z,1008.19
2018-05-31T11:58:01.927Z,1008.16
2018-05-31T11:59:54.643Z,1008.17
2018-05-31T12:00:54.554Z,1008.18
2018-05-31T12:02:47.272Z,1008.23
2018-05-31T12:03:47.178Z,1008.22
2018-05-31T12:05:39.870Z,1008.19
2018-05-31T12:06:39.779Z,1008.14
2018-05-31T12:08:32.516Z,1008.12
2018-05-31T12:09:32.388Z,1008.11
2018-05-31T12:11:25.094Z,1008.10
2018-05-31T12:12:25.008Z,1008.08
2018-05-31T12:14:17.718Z,1008.07
2018-05-31T12:15:17.605Z,1008.08
2018-05-31T12:17:10.316Z,1008.12
2018-05-31T12:18:10.214Z,1008.20
2018-05-31T12:20:02.935Z,1008.13
2018-05-31T12:21:02.829Z,1008.11
2018-05-31T12:22:55.526Z,1008.07
2018-05-31T12:23:55.437Z,1008.07
2018-05-31T12:25:48.164Z,1008.01
2018-05-31T12:26:48.039Z,1008.01
2018-05-31T12:28:40.742Z,1008.02
2018-05-31T12:29:40.651Z,1008.00
2018-05-31T12:31:33.374Z,1007.93
2018-05-31T12:32:33.264Z,1007.95
2018-05-31T12:34:25.986Z,1007.94
2018-05-31T12:35:25.949Z,1007.95
2018-05-31T12:37:18.623Z,1007.98
2018-05-31T12:38:18.552Z,1007.96
2018-05-31T12:40:11.262Z,1007.93
2018-05-31T12:41:11.156Z,1007.90
2018-05-31T12:43:03.928Z,1007.84
2018-05-31T12:44:03.755Z,1007.83
2018-05-31T12:45:56.495Z,1007.77
2018-05-31T12:46:56.375Z,1007.78
2018-05-31T12:48:50.085Z,1007.73
2018-05-31T12:49:49.976Z,1007.72
2018-05-31T12:51:42.676Z,1007.68
2018-05-31T12:52:42.588Z,1007.66
2018-05-31T12:54:35.304Z,1007.63
2018-05-31T12:55:35.195Z,1007.61
2018-05-31T12:57:27.893Z,1007.59
2018-05-31T12:58:27.841Z,1007.60
2018-05-31T13:00:20.528Z,1007.63
2018-05-31T13:01:20.410Z,1007.66
2018-05-31T13:03:13.104Z,1007.68
2018-05-31T13:04:13.008Z,1007.70
2018-05-31T13:06:05.820Z,1007.62
2018-05-31T13:07:05.636Z,1007.61
2018-05-31T13:08:58.318Z,1007.53
2018-05-31T13:09:58.229Z,1007.46
2018-05-31T13:11:50.946Z,1007.49
2018-05-31T13:12:50.835Z,1007.49
2018-05-31T13:14:43.535Z,1007.50
2018-05-31T13:15:43.447Z,1007.49
2018-05-31T13:17:36.183Z,1007.52
2018-05-31T13:18:36.062Z,1007.54
2018-05-31T13:20:28.762Z,1007.49
2018-05-31T13:21:28.668Z,1007.52
2018-05-31T13:23:21.379Z,1007.69
2018-05-31T13:24:21.275Z,1007.74
2018-05-31T13:26:13.981Z,1007.83
2018-05-31T13:27:13.884Z,1007.81
2018-05-31T13:29:06.600Z,1007.83
2018-05-31T13:30:06.489Z,1007.78
2018-05-31T13:31:59.202Z,1007.78
2018-05-31T13:32:59.102Z,1007.76
2018-05-31T13:34:51.824Z,1007.71
2018-05-31T13:35:51.707Z,1007.76
2018-05-31T13:37:44.401Z,1007.69
2018-05-31T13:38:44.311Z,1007.65
2018-05-31T13:40:37.040Z,1007.62
2018-05-31T13:41:36.919Z,1007.62
2018-05-31T13:43:29.621Z,1007.61
2018-05-31T13:44:29.530Z,1007.65
2018-05-31T13:46:22.247Z,1007.62
2018-05-31T13:47:22.182Z,1007.59
2018-05-31T13:49:14.852Z,1007.58
2018-05-31T13:50:14.750Z,1007.61
2018-05-31T13:52:07.486Z,1007.50
2018-05-31T13:53:07.523Z,1007.48
2018-05-31T13:55:00.063Z,1007.44
2018-05-31T13:55:59.973Z,1007.44
2018-05-31T13:57:52.693Z,1007.48
2018-05-31T13:58:52.581Z,1007.53
2018-05-31T14:00:45.297Z,1007.56
2018-05-31T14:01:45.220Z,1007.57
2018-05-31T14:03:37.932Z,1007.63
2018-05-31T14:04:37.830Z,1007.69
2018-05-31T14:06:30.544Z,1007.67
2018-05-31T14:07:30.448Z,1007.68
2018-05-31T14:09:23.256Z,1007.79
2018-05-31T14:10:23.101Z,1007.75
2018-05-31T14:12:15.819Z,1007.81
2018-05-31T14:13:15.736Z,1007.86
2018-05-31T14:15:08.620Z,1007.93
2018-05-31T14:18:14.784Z,1008.03
2018-05-31T14:18:48.396Z,1008.04
2018-05-31T14:20:41.247Z,1008.17
2018-05-31T14:21:41.044Z,1008.19
2018-05-31T14:23:34.399Z,1008.25
2018-05-31T14:24:33.674Z,1008.30
2018-05-31T14:26:26.400Z,1008.30
2018-05-31T14:27:26.371Z,1008.39
2018-05-31T14:29:18.951Z,1008.32
2018-05-31T14:30:18.889Z,1008.24
2018-05-31T14:32:11.590Z,1008.23
2018-05-31T14:33:11.540Z,1008.22
2018-05-31T14:35:04.175Z,1008.18
2018-05-31T14:36:04.076Z,1008.17
2018-05-31T14:37:56.788Z,1008.17
2018-05-31T14:38:56.734Z,1008.20
2018-05-31T14:40:49.406Z,1008.19
2018-05-31T14:41:49.295Z,1008.19
2018-05-31T14:43:42.009Z,1008.24
2018-05-31T14:44:41.894Z,1008.38
2018-05-31T14:46:34.627Z,1008.31
2018-05-31T14:47:34.499Z,1008.31
2018-05-31T14:49:27.276Z,1008.30
2018-05-31T14:50:27.157Z,1008.42
2018-05-31T14:52:19.843Z,1008.42
2018-05-31T14:53:20.426Z,1008.47
2018-05-31T14:55:12.467Z,1008.47
2018-05-31T14:56:12.360Z,1008.49
2018-05-31T14:58:05.021Z,1008.50
2018-05-31T14:59:04.929Z,1008.47
2018-05-31T15:00:57.658Z,1008.50
2018-05-31T15:01:57.531Z,1008.42
2018-05-31T15:03:50.391Z,1008.41
2018-05-31T15:04:50.140Z,1008.43
2018-05-31T15:06:42.859Z,1008.61
2018-05-31T15:07:42.741Z,1008.68
2018-05-31T15:09:35.437Z,1008.87
2018-05-31T15:10:35.454Z,1008.94
2018-05-31T15:12:28.094Z,1008.94
2018-05-31T15:13:28.000Z,1008.90
2018-05-31T15:15:20.783Z,1008.90
2018-05-31T15:16:20.542Z,1008.86
2018-05-31T15:18:13.389Z,1008.85
2018-05-31T15:19:13.226Z,1008.90
2018-05-31T15:21:05.835Z,1008.83
2018-05-31T15:22:05.737Z,1008.80
2018-05-31T15:23:58.481Z,1008.69
2018-05-31T15:24:58.339Z,1008.72
2018-05-31T15:26:51.518Z,1008.78
2018-05-31T15:27:51.424Z,1008.77
2018-05-31T15:29:44.141Z,1008.87
2018-05-31T15:30:44.021Z,1008.89
2018-05-31T15:32:36.720Z,1008.97
2018-05-31T15:33:36.619Z,1009.07
2018-05-31T15:35:29.373Z,1009.12
2018-05-31T15:36:29.227Z,1009.17
2018-05-31T15:38:21.918Z,1009.24
2018-05-31T15:39:21.912Z,1009.27
2018-05-31T15:41:14.988Z,1009.38
2018-05-31T15:42:14.607Z,1009.39
2018-05-31T15:44:07.406Z,1009.38
2018-05-31T15:45:07.206Z,1009.40
2018-05-31T15:46:59.953Z,1009.34
2018-05-31T15:47:59.840Z,1009.32
2018-05-31T15:49:52.826Z,1009.25
2018-05-31T15:50:52.476Z,1009.20
2018-05-31T15:52:45.329Z,1009.12
2018-05-31T15:53:45.071Z,1009.01
2018-05-31T15:55:37.779Z,1008.89
2018-05-31T15:56:37.667Z,1008.86
2018-05-31T15:58:30.391Z,1008.82
2018-05-31T15:59:30.272Z,1008.75
2018-05-31T16:01:22.960Z,1008.68
2018-05-31T16:02:22.861Z,1008.69
2018-05-31T16:04:15.590Z,1008.67
2018-05-31T16:05:15.459Z,1008.67
2018-05-31T16:07:08.150Z,1008.65
2018-05-31T16:08:08.056Z,1008.63
2018-05-31T16:10:00.822Z,1008.63
2018-05-31T16:11:00.941Z,1008.67
2018-05-31T16:12:53.362Z,1008.63
2018-05-31T16:13:53.263Z,1008.60
2018-05-31T16:15:45.987Z,1008.62
2018-05-31T16:16:46.045Z,1008.61
2018-05-31T16:18:38.550Z,1008.53
2018-05-31T16:19:38.459Z,1008.55
2018-05-31T16:21:31.342Z,1008.51
2018-05-31T16:22:31.057Z,1008.50
2018-05-31T16:24:23.747Z,1008.51
2018-05-31T16:25:23.650Z,1008.47
2018-05-31T16:27:16.366Z,1008.43
2018-05-31T16:28:16.248Z,1008.38
2018-05-31T16:30:08.937Z,1008.40
2018-05-31T16:31:08.842Z,1008.34
2018-05-31T16:33:01.561Z,1008.33
2018-05-31T16:34:01.445Z,1008.34
2018-05-31T16:35:54.135Z,1008.31
2018-05-31T16:36:54.036Z,1008.24
2018-05-31T16:38:46.752Z,1008.21
2018-05-31T16:39:46.700Z,1008.24
2018-05-31T16:41:39.332Z,1008.29
2018-05-31T16:42:39.234Z,1008.32
2018-05-31T16:44:31.951Z,1008.34
2018-05-31T16:45:31.835Z,1008.36
2018-05-31T16:47:24.530Z,1008.41
2018-05-31T16:48:24.436Z,1008.45
2018-05-31T16:50:17.165Z,1008.50
2018-05-31T16:51:17.029Z,1008.50
2018-05-31T16:53:09.722Z,1008.46
2018-05-31T16:54:09.732Z,1008.47
2018-05-31T16:56:02.348Z,1008.48
2018-05-31T16:57:02.233Z,1008.48
2018-05-31T16:58:54.931Z,1008.44
2018-05-31T16:59:54.823Z,1008.45
2018-05-31T17:01:47.551Z,1008.47
2018-05-31T17:02:47.423Z,1008.47
2018-05-31T17:04:40.160Z,1008.59
2018-05-31T17:05:40.015Z,1008.62
2018-05-31T17:07:32.738Z,1008.69
2018-05-31T17:08:32.616Z,1008.74
2018-05-31T17:10:25.322Z,1008.72
2018-05-31T17:11:25.216Z,1008.73
2018-05-31T17:13:18.424Z,1008.72
2018-05-31T17:14:18.302Z,1008.74
2018-05-31T17:16:10.994Z,1008.77
2018-05-31T17:17:10.891Z,1008.73
2018-05-31T17:19:03.611Z,1008.79
2018-05-31T17:20:03.499Z,1008.78
2018-05-31T17:21:56.186Z,1008.81
2018-05-31T17:22:56.087Z,1008.85
2018-05-31T17:24:48.808Z,1008.88
2018-05-31T17:25:48.677Z,1008.89
2018-05-31T17:27:41.372Z,1008.88
2018-05-31T17:28:41.268Z,1008.86
2018-05-31T17:30:34.002Z,1008.95
2018-05-31T17:31:33.869Z,1009.03
2018-05-31T17:33:26.587Z,1009.07
2018-05-31T17:34:26.564Z,1009.05
2018-05-31T17:36:19.181Z,1009.02
2018-05-31T17:37:19.059Z,1009.00
2018-05-31T17:39:11.748Z,1008.88
2018-05-31T17:40:11.645Z,1008.88
2018-05-31T17:42:04.365Z,1008.87
2018-05-31T17:43:04.736Z,1008.88
2018-05-31T17:44:56.939Z,1008.88
2018-05-31T17:45:56.845Z,1008.91
2018-05-31T17:47:49.632Z,1008.94
2018-05-31T17:48:49.507Z,1008.98
2018-05-31T17:50:42.198Z,1009.01
2018-05-31T17:51:42.115Z,1009.03
2018-05-31T17:53:34.818Z,1008.96
2018-05-31T17:54:34.697Z,1008.96
2018-05-31T17:56:27.391Z,1008.93
2018-05-31T17:57:27.290Z,1008.89
2018-05-31T17:59:20.009Z,1008.86
2018-05-31T18:00:19.894Z,1008.81
2018-05-31T18:02:12.570Z,1008.80
2018-05-31T18:03:12.476Z,1008.81
2018-05-31T18:05:05.195Z,1008.77
2018-05-31T18:06:05.065Z,1008.77
2018-05-31T18:07:57.809Z,1008.75
2018-05-31T18:08:57.714Z,1008.77
2018-05-31T18:10:50.575Z,1008.82
2018-05-31T18:11:50.305Z,1008.90
2018-05-31T18:13:42.988Z,1008.91
2018-05-31T18:14:42.895Z,1008.91
2018-05-31T18:16:35.613Z,1008.89
2018-05-31T18:17:35.489Z,1008.91
2018-05-31T18:19:28.180Z,1008.93
2018-05-31T18:20:28.077Z,1008.89
2018-05-31T18:22:20.803Z,1008.87
2018-05-31T18:23:20.674Z,1008.91
2018-05-31T18:25:13.360Z,1008.93
2018-05-31T18:26:13.259Z,1008.94
2018-05-31T18:28:05.984Z,1009.02
2018-05-31T18:29:05.859Z,1009.06
2018-05-31T18:30:58.547Z,1009.13
2018-05-31T18:31:58.448Z,1009.15
2018-05-31T18:33:51.161Z,1009.14
2018-05-31T18:34:51.051Z,1009.14
2018-05-31T18:36:43.731Z,1009.12
2018-05-31T18:37:43.628Z,1009.08
2018-05-31T18:39:36.341Z,1009.09
2018-05-31T18:40:36.227Z,1009.09
2018-05-31T18:42:28.916Z,1009.10
2018-05-31T18:43:28.822Z,1009.15
2018-05-31T18:45:21.539Z,1009.08
2018-05-31T18:46:21.408Z,1009.03
2018-05-31T18:48:14.092Z,1008.98
2018-05-31T18:49:13.995Z,1008.96
2018-05-31T18:51:06.713Z,1009.03
2018-05-31T18:52:06.589Z,1009.00
2018-05-31T18:53:59.275Z,1009.01
2018-05-31T18:54:59.176Z,1009.02
2018-05-31T18:56:52.076Z,1008.97
2018-05-31T18:57:51.763Z,1008.96
2018-05-31T18:59:44.447Z,1008.99
2018-05-31T19:00:44.349Z,1008.98
2018-05-31T19:02:37.216Z,1008.89
2018-05-31T19:03:36.943Z,1008.87
2018-05-31T19:05:29.636Z,1008.73
2018-05-31T19:06:29.539Z,1008.73
2018-05-31T19:08:22.304Z,1008.72
2018-05-31T19:09:22.215Z,1008.69
2018-05-31T19:11:14.886Z,1008.75
2018-05-31T19:12:14.750Z,1008.75
2018-05-31T19:14:07.577Z,1008.78
2018-05-31T19:15:07.435Z,1008.77
2018-05-31T19:17:00.127Z,1008.81
2018-05-31T19:18:00.026Z,1008.82
2018-05-31T19:19:52.758Z,1008.79
2018-05-31T19:20:52.611Z,1008.78
2018-05-31T19:22:45.332Z,1008.72
2018-05-31T19:23:45.274Z,1008.73
2018-05-31T19:25:37.935Z,1008.72
2018-05-31T19:26:37.917Z,1008.81
2018-05-31T19:28:30.520Z,1008.91
2018-05-31T19:29:30.475Z,1008.92
2018-05-31T19:31:23.143Z,1008.91
2018-05-31T19:32:23.049Z,1008.88
2018-05-31T19:34:15.689Z,1008.89
2018-05-31T19:35:15.588Z,1008.92
2018-05-31T19:37:08.324Z,1008.90
2018-05-31T19:38:08.198Z,1008.86
2018-05-31T19:40:00.892Z,1008.79
2018-05-31T19:41:00.798Z,1008.82
2018-05-31T19:42:53.560Z,1008.88
2018-05-31T19:43:53.408Z,1008.95
2018-05-31T19:45:46.155Z,1008.98
2018-05-31T19:46:45.988Z,1009.01
2018-05-31T19:48:38.734Z,1009.09
2018-05-31T19:49:38.639Z,1009.10
2018-05-31T19:51:31.577Z,1009.10
2018-05-31T19:52:31.313Z,1009.13
2018-05-31T19:54:24.901Z,1009.11
2018-05-31T19:55:23.878Z,1009.15
2018-05-31T19:57:16.481Z,1009.14
2018-05-31T19:58:16.519Z,1009.18
2018-05-31T20:00:09.325Z,1009.19
2018-05-31T20:01:09.088Z,1009.20
2018-05-31T20:03:01.741Z,1009.19
2018-05-31T20:04:01.643Z,1009.20
2018-05-31T20:05:54.465Z,1009.25
2018-05-31T20:06:54.150Z,1009.28
2018-05-31T20:08:46.860Z,1009.26
2018-05-31T20:09:46.741Z,1009.31
2018-05-31T20:11:39.450Z,1009.34
2018-05-31T20:12:39.364Z,1009.38
2018-05-31T20:14:32.103Z,1009.42
2018-05-31T20:15:31.922Z,1009.49
2018-05-31T20:17:24.624Z,1009.48
2018-05-31T20:18:24.499Z,1009.49
2018-05-31T20:20:17.197Z,1009.48
2018-05-31T20:21:17.091Z,1009.47
2018-05-31T20:23:09.798Z,1009.44
2018-05-31T20:24:09.684Z,1009.45
2018-05-31T20:26:02.374Z,1009.44
2018-05-31T20:27:02.270Z,1009.46
2018-05-31T20:28:54.992Z,1009.56
2018-05-31T20:29:54.857Z,1009.62
2018-05-31T20:31:47.551Z,1009.63
2018-05-31T20:32:47.461Z,1009.69
2018-05-31T20:34:40.163Z,1009.68
2018-05-31T20:35:40.047Z,1009.64
2018-05-31T20:37:32.732Z,1009.59
2018-05-31T20:38:32.628Z,1009.60
2018-05-31T20:40:25.346Z,1009.64
2018-05-31T20:41:25.218Z,1009.68
2018-05-31T20:43:17.918Z,1009.69
2018-05-31T20:44:17.803Z,1009.71
2018-05-31T20:46:10.523Z,1009.73
2018-05-31T20:47:10.391Z,1009.71
2018-05-31T20:49:03.076Z,1009.71
2018-05-31T20:50:02.973Z,1009.71
2018-05-31T20:51:56.067Z,1009.69
2018-05-31T20:52:55.582Z,1009.75
2018-05-31T20:54:48.270Z,1009.72
2018-05-31T20:55:48.170Z,1009.68
2018-05-31T20:57:40.912Z,1009.68
2018-05-31T20:58:40.780Z,1009.74
2018-05-31T21:00:33.472Z,1009.68
2018-05-31T21:01:33.368Z,1009.70
2018-05-31T21:03:26.081Z,1009.59
2018-05-31T21:04:25.955Z,1009.60
2018-05-31T21:06:18.636Z,1009.51
2018-05-31T21:07:18.537Z,1009.46
2018-05-31T21:09:11.245Z,1009.51
2018-05-31T21:10:11.130Z,1009.51
2018-05-31T21:12:03.825Z,1009.56
2018-05-31T21:13:03.723Z,1009.54
2018-05-31T21:14:56.434Z,1009.57
2018-05-31T21:15:56.316Z,1009.53
2018-05-31T21:17:49.147Z,1009.51
2018-05-31T21:18:48.906Z,1009.54
2018-05-31T21:20:41.612Z,1009.53
2018-05-31T21:21:41.494Z,1009.56
2018-05-31T21:23:34.176Z,1009.55
2018-05-31T21:24:34.084Z,1009.63
2018-05-31T21:26:26.789Z,1009.68
2018-05-31T21:27:26.665Z,1009.69
2018-05-31T21:29:19.383Z,1009.64
2018-05-31T21:30:19.252Z,1009.64
2018-05-31T21:32:11.965Z,1009.57
2018-05-31T21:33:11.833Z,1009.60
2018-05-31T21:35:04.518Z,1009.60
2018-05-31T21:36:04.424Z,1009.61
2018-05-31T21:37:57.156Z,1009.59
2018-05-31T21:38:57.029Z,1009.62
2018-05-31T21:40:49.714Z,1009.63
2018-05-31T21:41:49.613Z,1009.63
2018-05-31T21:43:42.330Z,1009.61
2018-05-31T21:44:42.192Z,1009.58
2018-05-31T21:46:34.881Z,1009.61
2018-05-31T21:47:34.791Z,1009.62
2018-05-31T21:49:27.495Z,1009.61
2018-05-31T21:50:27.372Z,1009.60
2018-05-31T21:52:20.089Z,1009.60
2018-05-31T21:53:19.962Z,1009.60
2018-05-31T21:55:12.677Z,1009.54